sensor_id;sensor_type;location;lat;lon;timestamp;pressure;altitude;pressure_sealevel;temperature;humidity
56894;BME280;43392;50.078;13.704;2023-09-30T00:01:41;97449.09;;;18.88;64.25
56894;BME280;43392;50.078;13.704;2023-09-30T00:04:09;97440.13;;;18.79;64.60
56894;BME280;43392;50.078;13.704;2023-09-30T00:06:36;97448.44;;;18.74;64.84
56894;BME280;43392;50.078;13.704;2023-09-30T00:09:03;97445.53;;;18.70;64.81
56894;BME280;43392;50.078;13.704;2023-09-30T00:11:32;97454.00;;;18.69;64.86
56894;BME280;43392;50.078;13.704;2023-09-30T00:13:58;97460.69;;;18.63;64.98
56894;BME280;43392;50.078;13.704;2023-09-30T00:16:25;97455.72;;;18.56;65.37
56894;BME280;43392;50.078;13.704;2023-09-30T00:18:51;97449.81;;;18.54;65.12
56894;BME280;43392;50.078;13.704;2023-09-30T00:21:19;97453.47;;;18.49;65.48
56894;BME280;43392;50.078;13.704;2023-09-30T00:23:46;97462.81;;;18.43;65.70
56894;BME280;43392;50.078;13.704;2023-09-30T00:26:12;97468.91;;;18.40;65.92
56894;BME280;43392;50.078;13.704;2023-09-30T00:28:40;97460.09;;;18.43;65.80
56894;BME280;43392;50.078;13.704;2023-09-30T00:31:08;97457.53;;;18.38;66.14
56894;BME280;43392;50.078;13.704;2023-09-30T00:33:35;97463.59;;;18.35;66.08
56894;BME280;43392;50.078;13.704;2023-09-30T00:36:06;97465.66;;;18.38;65.83
56894;BME280;43392;50.078;13.704;2023-09-30T00:38:33;97461.16;;;18.25;66.13
56894;BME280;43392;50.078;13.704;2023-09-30T00:40:59;97473.19;;;18.33;65.90
56894;BME280;43392;50.078;13.704;2023-09-30T00:43:26;97469.03;;;18.35;66.20
56894;BME280;43392;50.078;13.704;2023-09-30T00:46:01;97464.22;;;18.32;66.22
56894;BME280;43392;50.078;13.704;2023-09-30T00:48:29;97467.13;;;18.36;66.10
56894;BME280;43392;50.078;13.704;2023-09-30T00:50:56;97460.75;;;18.40;66.03
56894;BME280;43392;50.078;13.704;2023-09-30T00:53:23;97463.13;;;18.33;65.97
56894;BME280;43392;50.078;13.704;2023-09-30T00:55:50;97472.00;;;18.25;66.52
56894;BME280;43392;50.078;13.704;2023-09-30T00:58:17;97474.66;;;18.17;66.66
56894;BME280;43392;50.078;13.704;2023-09-30T01:00:44;97475.13;;;18.10;67.10
56894;BME280;43392;50.078;13.704;2023-09-30T01:03:13;97468.97;;;17.96;67.39
56894;BME280;43392;50.078;13.704;2023-09-30T01:05:40;97468.63;;;17.89;67.76
56894;BME280;43392;50.078;13.704;2023-09-30T01:08:08;97473.06;;;17.85;67.70
56894;BME280;43392;50.078;13.704;2023-09-30T01:10:34;97467.66;;;17.85;67.92
56894;BME280;43392;50.078;13.704;2023-09-30T01:13:01;97467.19;;;17.92;67.67
56894;BME280;43392;50.078;13.704;2023-09-30T01:15:28;97469.91;;;17.92;67.87
56894;BME280;43392;50.078;13.704;2023-09-30T01:17:55;97461.44;;;17.93;67.76
56894;BME280;43392;50.078;13.704;2023-09-30T01:20:23;97464.00;;;17.89;67.87
56894;BME280;43392;50.078;13.704;2023-09-30T01:22:51;97468.53;;;17.80;68.20
56894;BME280;43392;50.078;13.704;2023-09-30T01:25:18;97470.59;;;17.75;68.50
56894;BME280;43392;50.078;13.704;2023-09-30T01:27:44;97476.75;;;17.67;68.83
56894;BME280;43392;50.078;13.704;2023-09-30T01:30:11;97478.59;;;17.58;69.04
56894;BME280;43392;50.078;13.704;2023-09-30T01:32:39;97477.91;;;17.52;69.34
56894;BME280;43392;50.078;13.704;2023-09-30T01:35:06;97476.09;;;17.48;69.44
56894;BME280;43392;50.078;13.704;2023-09-30T01:37:33;97481.44;;;17.39;69.66
56894;BME280;43392;50.078;13.704;2023-09-30T01:40:01;97483.16;;;17.35;70.11
56894;BME280;43392;50.078;13.704;2023-09-30T01:42:29;97481.38;;;17.31;70.42
56894;BME280;43392;50.078;13.704;2023-09-30T01:44:55;97485.19;;;17.30;70.28
56894;BME280;43392;50.078;13.704;2023-09-30T01:47:23;97490.09;;;17.27;70.30
56894;BME280;43392;50.078;13.704;2023-09-30T01:49:49;97491.63;;;17.34;70.53
56894;BME280;43392;50.078;13.704;2023-09-30T01:52:16;97476.22;;;17.43;69.94
56894;BME280;43392;50.078;13.704;2023-09-30T01:54:42;97485.13;;;17.57;69.91
56894;BME280;43392;50.078;13.704;2023-09-30T01:57:10;97490.75;;;17.60;69.64
56894;BME280;43392;50.078;13.704;2023-09-30T01:59:37;97494.38;;;17.56;69.65
56894;BME280;43392;50.078;13.704;2023-09-30T02:02:04;97477.84;;;17.44;69.92
56894;BME280;43392;50.078;13.704;2023-09-30T02:04:31;97486.38;;;17.37;70.25
56894;BME280;43392;50.078;13.704;2023-09-30T02:06:57;97483.59;;;17.29;70.79
56894;BME280;43392;50.078;13.704;2023-09-30T02:09:24;97495.16;;;17.20;71.06
56894;BME280;43392;50.078;13.704;2023-09-30T02:11:51;97502.41;;;17.11;71.42
56894;BME280;43392;50.078;13.704;2023-09-30T02:14:19;97502.41;;;17.11;71.73
56894;BME280;43392;50.078;13.704;2023-09-30T02:16:45;97498.28;;;17.14;71.02
56894;BME280;43392;50.078;13.704;2023-09-30T02:19:12;97503.09;;;17.17;71.66
56894;BME280;43392;50.078;13.704;2023-09-30T02:21:39;97510.09;;;17.18;71.21
56894;BME280;43392;50.078;13.704;2023-09-30T02:24:06;97505.91;;;17.12;71.85
56894;BME280;43392;50.078;13.704;2023-09-30T02:26:33;97507.44;;;17.04;72.23
56894;BME280;43392;50.078;13.704;2023-09-30T02:28:59;97515.75;;;16.94;72.36
56894;BME280;43392;50.078;13.704;2023-09-30T02:31:27;97512.16;;;16.85;72.91
56894;BME280;43392;50.078;13.704;2023-09-30T02:33:54;97515.06;;;16.89;72.82
56894;BME280;43392;50.078;13.704;2023-09-30T02:36:21;97513.06;;;16.94;72.76
56894;BME280;43392;50.078;13.704;2023-09-30T02:38:47;97524.88;;;16.98;72.77
56894;BME280;43392;50.078;13.704;2023-09-30T02:41:15;97520.28;;;16.99;72.44
56894;BME280;43392;50.078;13.704;2023-09-30T02:43:42;97530.19;;;17.03;72.05
56894;BME280;43392;50.078;13.704;2023-09-30T02:46:09;97529.91;;;17.05;72.24
56894;BME280;43392;50.078;13.704;2023-09-30T02:48:37;97524.06;;;17.11;72.14
56894;BME280;43392;50.078;13.704;2023-09-30T02:51:03;97534.50;;;17.18;71.66
56894;BME280;43392;50.078;13.704;2023-09-30T02:53:30;97533.09;;;17.20;71.49
56894;BME280;43392;50.078;13.704;2023-09-30T02:55:57;97539.50;;;17.24;71.99
56894;BME280;43392;50.078;13.704;2023-09-30T02:58:25;97549.13;;;17.31;71.88
56894;BME280;43392;50.078;13.704;2023-09-30T03:00:51;97541.72;;;17.36;71.29
56894;BME280;43392;50.078;13.704;2023-09-30T03:03:19;97535.38;;;17.41;71.16
56894;BME280;43392;50.078;13.704;2023-09-30T03:05:48;97543.88;;;17.48;70.97
56894;BME280;43392;50.078;13.704;2023-09-30T03:08:15;97543.28;;;17.51;71.04
56894;BME280;43392;50.078;13.704;2023-09-30T03:10:42;97543.50;;;17.54;70.95
56894;BME280;43392;50.078;13.704;2023-09-30T03:13:08;97551.84;;;17.58;71.24
56894;BME280;43392;50.078;13.704;2023-09-30T03:15:35;97558.56;;;17.60;70.87
56894;BME280;43392;50.078;13.704;2023-09-30T03:18:02;97558.56;;;17.60;70.53
56894;BME280;43392;50.078;13.704;2023-09-30T03:20:29;97556.34;;;17.62;70.67
56894;BME280;43392;50.078;13.704;2023-09-30T03:22:57;97558.72;;;17.64;70.79
56894;BME280;43392;50.078;13.704;2023-09-30T03:25:24;97566.38;;;17.62;70.98
56894;BME280;43392;50.078;13.704;2023-09-30T03:27:51;97574.81;;;17.60;70.64
56894;BME280;43392;50.078;13.704;2023-09-30T03:30:18;97578.34;;;17.61;71.16
56894;BME280;43392;50.078;13.704;2023-09-30T03:32:46;97586.47;;;17.61;71.12
56894;BME280;43392;50.078;13.704;2023-09-30T03:35:12;97582.75;;;17.57;71.22
56894;BME280;43392;50.078;13.704;2023-09-30T03:37:40;97584.06;;;17.46;71.35
56894;BME280;43392;50.078;13.704;2023-09-30T03:40:09;97593.50;;;17.35;71.99
56894;BME280;43392;50.078;13.704;2023-09-30T03:42:40;97600.16;;;17.29;72.71
56894;BME280;43392;50.078;13.704;2023-09-30T03:45:08;97602.66;;;17.25;73.21
56894;BME280;43392;50.078;13.704;2023-09-30T03:47:35;97597.66;;;17.18;73.50
56894;BME280;43392;50.078;13.704;2023-09-30T03:50:02;97612.38;;;17.12;73.93
56894;BME280;43392;50.078;13.704;2023-09-30T03:52:29;97617.94;;;17.07;74.07
56894;BME280;43392;50.078;13.704;2023-09-30T03:54:58;97614.78;;;17.00;74.49
56894;BME280;43392;50.078;13.704;2023-09-30T03:57:26;97626.25;;;16.97;74.50
56894;BME280;43392;50.078;13.704;2023-09-30T03:59:53;97629.56;;;16.94;75.19
56894;BME280;43392;50.078;13.704;2023-09-30T04:02:19;97625.75;;;16.95;74.94
56894;BME280;43392;50.078;13.704;2023-09-30T04:04:46;97632.25;;;16.94;74.45
56894;BME280;43392;50.078;13.704;2023-09-30T04:07:15;97625.22;;;16.93;73.59
56894;BME280;43392;50.078;13.704;2023-09-30T04:09:42;97626.03;;;16.94;73.03
56894;BME280;43392;50.078;13.704;2023-09-30T04:12:08;97642.28;;;16.94;72.74
56894;BME280;43392;50.078;13.704;2023-09-30T04:14:36;97639.66;;;16.89;73.23
56894;BME280;43392;50.078;13.704;2023-09-30T04:17:03;97637.13;;;16.79;72.23
56894;BME280;43392;50.078;13.704;2023-09-30T04:19:30;97644.84;;;16.72;72.09
56894;BME280;43392;50.078;13.704;2023-09-30T04:21:57;97656.31;;;16.69;71.97
56894;BME280;43392;50.078;13.704;2023-09-30T04:24:24;97661.50;;;16.65;71.79
56894;BME280;43392;50.078;13.704;2023-09-30T04:26:51;97661.59;;;16.60;71.63
56894;BME280;43392;50.078;13.704;2023-09-30T04:29:22;97667.06;;;16.55;70.93
56894;BME280;43392;50.078;13.704;2023-09-30T04:31:50;97674.75;;;16.48;71.16
56894;BME280;43392;50.078;13.704;2023-09-30T04:34:17;97671.84;;;16.44;70.63
56894;BME280;43392;50.078;13.704;2023-09-30T04:36:44;97668.91;;;16.41;70.25
56894;BME280;43392;50.078;13.704;2023-09-30T04:39:11;97671.38;;;16.37;70.22
56894;BME280;43392;50.078;13.704;2023-09-30T04:41:37;97666.28;;;16.36;70.58
56894;BME280;43392;50.078;13.704;2023-09-30T04:44:07;97673.41;;;16.32;69.99
56894;BME280;43392;50.078;13.704;2023-09-30T04:46:35;97680.47;;;16.28;70.57
56894;BME280;43392;50.078;13.704;2023-09-30T04:49:07;97700.22;;;16.28;70.50
56894;BME280;43392;50.078;13.704;2023-09-30T04:51:34;97695.13;;;16.27;70.17
56894;BME280;43392;50.078;13.704;2023-09-30T04:54:01;97700.09;;;16.20;70.49
56894;BME280;43392;50.078;13.704;2023-09-30T04:56:29;97699.88;;;16.16;70.12
56894;BME280;43392;50.078;13.704;2023-09-30T04:58:55;97711.81;;;16.15;70.27
56894;BME280;43392;50.078;13.704;2023-09-30T05:01:22;97720.19;;;16.14;70.26
56894;BME280;43392;50.078;13.704;2023-09-30T05:03:49;97721.59;;;16.11;70.37
56894;BME280;43392;50.078;13.704;2023-09-30T05:06:17;97730.81;;;16.10;70.75
56894;BME280;43392;50.078;13.704;2023-09-30T05:08:43;97723.47;;;16.11;70.36
56894;BME280;43392;50.078;13.704;2023-09-30T05:11:10;97731.31;;;16.12;70.38
56894;BME280;43392;50.078;13.704;2023-09-30T05:13:36;97729.44;;;16.13;70.62
56894;BME280;43392;50.078;13.704;2023-09-30T05:16:03;97732.13;;;16.13;70.35
56894;BME280;43392;50.078;13.704;2023-09-30T05:18:30;97727.00;;;16.11;70.79
56894;BME280;43392;50.078;13.704;2023-09-30T05:20:57;97721.38;;;16.08;70.85
56894;BME280;43392;50.078;13.704;2023-09-30T05:23:25;97723.56;;;16.06;70.95
56894;BME280;43392;50.078;13.704;2023-09-30T05:25:52;97718.16;;;16.06;70.61
56894;BME280;43392;50.078;13.704;2023-09-30T05:28:19;97718.75;;;16.03;71.07
56894;BME280;43392;50.078;13.704;2023-09-30T05:30:46;97726.84;;;16.03;71.12
56894;BME280;43392;50.078;13.704;2023-09-30T05:33:13;97727.13;;;16.01;70.72
56894;BME280;43392;50.078;13.704;2023-09-30T05:35:40;97735.84;;;15.98;71.18
56894;BME280;43392;50.078;13.704;2023-09-30T05:38:07;97729.94;;;15.96;71.13
56894;BME280;43392;50.078;13.704;2023-09-30T05:40:35;97729.19;;;15.90;71.55
56894;BME280;43392;50.078;13.704;2023-09-30T05:43:02;97743.06;;;15.84;71.89
56894;BME280;43392;50.078;13.704;2023-09-30T05:45:31;97745.25;;;15.82;71.97
56894;BME280;43392;50.078;13.704;2023-09-30T05:48:01;97746.63;;;15.79;72.62
56894;BME280;43392;50.078;13.704;2023-09-30T05:50:32;97752.63;;;15.76;72.84
56894;BME280;43392;50.078;13.704;2023-09-30T05:53:02;97745.59;;;15.75;72.96
56894;BME280;43392;50.078;13.704;2023-09-30T05:55:30;97751.56;;;15.72;72.80
56894;BME280;43392;50.078;13.704;2023-09-30T05:57:58;97760.28;;;15.69;73.36
56894;BME280;43392;50.078;13.704;2023-09-30T06:00:26;97763.56;;;15.66;73.75
56894;BME280;43392;50.078;13.704;2023-09-30T06:02:56;97777.06;;;15.66;73.91
56894;BME280;43392;50.078;13.704;2023-09-30T06:05:23;97770.03;;;15.65;73.50
56894;BME280;43392;50.078;13.704;2023-09-30T06:07:51;97770.03;;;15.65;73.56
56894;BME280;43392;50.078;13.704;2023-09-30T06:10:19;97767.34;;;15.65;73.84
56894;BME280;43392;50.078;13.704;2023-09-30T06:12:46;97774.94;;;15.63;73.73
56894;BME280;43392;50.078;13.704;2023-09-30T06:15:15;97760.91;;;15.61;74.23
56894;BME280;43392;50.078;13.704;2023-09-30T06:17:46;97764.69;;;15.60;73.88
56894;BME280;43392;50.078;13.704;2023-09-30T06:20:13;97763.63;;;15.61;74.38
56894;BME280;43392;50.078;13.704;2023-09-30T06:22:43;97762.50;;;15.62;74.32
56894;BME280;43392;50.078;13.704;2023-09-30T06:25:10;97761.41;;;15.63;74.43
56894;BME280;43392;50.078;13.704;2023-09-30T06:27:37;97776.56;;;15.64;74.05
56894;BME280;43392;50.078;13.704;2023-09-30T06:30:05;97791.16;;;15.63;73.81
56894;BME280;43392;50.078;13.704;2023-09-30T06:32:33;97778.16;;;15.65;73.65
56894;BME280;43392;50.078;13.704;2023-09-30T06:35:01;97781.72;;;15.61;73.02
56894;BME280;43392;50.078;13.704;2023-09-30T06:37:28;97791.22;;;15.58;72.33
56894;BME280;43392;50.078;13.704;2023-09-30T06:39:55;97800.69;;;15.56;72.51
56894;BME280;43392;50.078;13.704;2023-09-30T06:42:22;97803.16;;;15.57;72.15
56894;BME280;43392;50.078;13.704;2023-09-30T06:44:48;97810.66;;;15.60;71.87
56894;BME280;43392;50.078;13.704;2023-09-30T06:47:15;97824.22;;;15.55;71.24
56894;BME280;43392;50.078;13.704;2023-09-30T06:49:43;97815.38;;;15.50;70.98
56894;BME280;43392;50.078;13.704;2023-09-30T06:52:10;97822.97;;;15.48;71.15
56894;BME280;43392;50.078;13.704;2023-09-30T06:54:37;97833.25;;;15.46;71.13
56894;BME280;43392;50.078;13.704;2023-09-30T06:57:03;97834.06;;;15.46;71.32
56894;BME280;43392;50.078;13.704;2023-09-30T06:59:32;97835.16;;;15.45;71.44
56894;BME280;43392;50.078;13.704;2023-09-30T07:01:58;97842.47;;;15.45;70.97
56894;BME280;43392;50.078;13.704;2023-09-30T07:04:25;97838.38;;;15.47;71.22
56894;BME280;43392;50.078;13.704;2023-09-30T07:06:53;97844.59;;;15.48;70.34
56894;BME280;43392;50.078;13.704;2023-09-30T07:09:20;97847.31;;;15.48;70.77
56894;BME280;43392;50.078;13.704;2023-09-30T07:11:47;97853.50;;;15.48;70.60
56894;BME280;43392;50.078;13.704;2023-09-30T07:14:14;97855.13;;;15.49;70.10
56894;BME280;43392;50.078;13.704;2023-09-30T07:16:41;97859.41;;;15.50;70.19
56894;BME280;43392;50.078;13.704;2023-09-30T07:19:08;97856.16;;;15.53;69.82
56894;BME280;43392;50.078;13.704;2023-09-30T07:21:34;97872.63;;;15.57;69.46
56894;BME280;43392;50.078;13.704;2023-09-30T07:24:04;97867.47;;;15.55;69.00
56894;BME280;43392;50.078;13.704;2023-09-30T07:26:31;97867.47;;;15.55;69.23
56894;BME280;43392;50.078;13.704;2023-09-30T07:28:58;97868.53;;;15.59;68.98
56894;BME280;43392;50.078;13.704;2023-09-30T07:31:25;97875.03;;;15.58;68.51
56894;BME280;43392;50.078;13.704;2023-09-30T07:33:51;97862.03;;;15.60;68.47
56894;BME280;43392;50.078;13.704;2023-09-30T07:36:18;97864.69;;;15.65;68.27
56894;BME280;43392;50.078;13.704;2023-09-30T07:38:45;97873.56;;;15.71;67.76
56894;BME280;43392;50.078;13.704;2023-09-30T07:41:13;97876.47;;;15.74;67.86
56894;BME280;43392;50.078;13.704;2023-09-30T07:43:40;97873.22;;;15.77;67.33
56894;BME280;43392;50.078;13.704;2023-09-30T07:46:06;97885.09;;;15.81;67.21
56894;BME280;43392;50.078;13.704;2023-09-30T07:48:34;97892.09;;;15.82;67.11
56894;BME280;43392;50.078;13.704;2023-09-30T07:51:01;97896.88;;;15.90;66.92
56894;BME280;43392;50.078;13.704;2023-09-30T07:53:27;97897.06;;;15.99;66.96
56894;BME280;43392;50.078;13.704;2023-09-30T07:55:54;97901.66;;;15.99;66.88
56894;BME280;43392;50.078;13.704;2023-09-30T07:58:23;97894.34;;;15.99;66.61
56894;BME280;43392;50.078;13.704;2023-09-30T08:00:50;97892.69;;;16.03;66.83
56894;BME280;43392;50.078;13.704;2023-09-30T08:03:17;97896.44;;;16.07;66.88
56894;BME280;43392;50.078;13.704;2023-09-30T08:05:43;97889.13;;;16.08;66.58
56894;BME280;43392;50.078;13.704;2023-09-30T08:08:11;97880.50;;;16.06;66.52
56894;BME280;43392;50.078;13.704;2023-09-30T08:10:39;97886.69;;;16.06;66.19
56894;BME280;43392;50.078;13.704;2023-09-30T08:13:06;97888.53;;;16.11;65.84
56894;BME280;43392;50.078;13.704;2023-09-30T08:15:34;97893.38;;;16.14;64.91
56894;BME280;43392;50.078;13.704;2023-09-30T08:18:01;97899.59;;;16.14;64.72
56894;BME280;43392;50.078;13.704;2023-09-30T08:20:28;97893.94;;;16.11;64.58
56894;BME280;43392;50.078;13.704;2023-09-30T08:22:54;97901.78;;;16.12;64.57
56894;BME280;43392;50.078;13.704;2023-09-30T08:25:21;97913.88;;;16.20;64.43
56894;BME280;43392;50.078;13.704;2023-09-30T08:27:48;97901.16;;;16.20;64.56
56894;BME280;43392;50.078;13.704;2023-09-30T08:30:15;97914.41;;;16.22;64.50
56894;BME280;43392;50.078;13.704;2023-09-30T08:32:44;97916.53;;;16.25;64.47
56894;BME280;43392;50.078;13.704;2023-09-30T08:35:11;97907.91;;;16.23;64.43
56894;BME280;43392;50.078;13.704;2023-09-30T08:37:39;97900.88;;;16.22;64.42
56894;BME280;43392;50.078;13.704;2023-09-30T08:40:07;97911.84;;;16.30;64.26
56894;BME280;43392;50.078;13.704;2023-09-30T08:42:35;97891.47;;;16.38;63.72
56894;BME280;43392;50.078;13.704;2023-09-30T08:45:02;97890.59;;;16.42;63.29
56894;BME280;43392;50.078;13.704;2023-09-30T08:47:31;97894.56;;;16.50;63.58
56894;BME280;43392;50.078;13.704;2023-09-30T08:50:01;97895.09;;;16.52;62.46
56894;BME280;43392;50.078;13.704;2023-09-30T08:52:32;97895.09;;;16.52;62.25
56894;BME280;43392;50.078;13.704;2023-09-30T08:54:59;97905.44;;;16.45;61.82
56894;BME280;43392;50.078;13.704;2023-09-30T08:57:27;97898.13;;;16.45;61.97
56894;BME280;43392;50.078;13.704;2023-09-30T08:59:55;97905.44;;;16.45;61.98
56894;BME280;43392;50.078;13.704;2023-09-30T09:02:21;97898.94;;;16.46;61.73
56894;BME280;43392;50.078;13.704;2023-09-30T09:04:48;97910.88;;;16.45;61.60
56894;BME280;43392;50.078;13.704;2023-09-30T09:07:17;97906.25;;;16.45;61.96
56894;BME280;43392;50.078;13.704;2023-09-30T09:10:02;97920.00;;;16.54;60.86
56894;BME280;43392;50.078;13.704;2023-09-30T09:12:29;97915.63;;;16.58;60.66
56894;BME280;43392;50.078;13.704;2023-09-30T09:14:56;97909.25;;;16.68;61.04
56894;BME280;43392;50.078;13.704;2023-09-30T09:17:22;97908.88;;;16.74;60.24
56894;BME280;43392;50.078;13.704;2023-09-30T09:19:59;97917.19;;;16.83;58.82
56894;BME280;43392;50.078;13.704;2023-09-30T09:22:39;97915.78;;;16.85;58.77
56894;BME280;43392;50.078;13.704;2023-09-30T09:25:06;97914.09;;;16.89;58.85
56894;BME280;43392;50.078;13.704;2023-09-30T09:27:33;97918.44;;;16.90;59.65
56894;BME280;43392;50.078;13.704;2023-09-30T09:30:14;97929.22;;;16.95;59.07
56894;BME280;43392;50.078;13.704;2023-09-30T09:32:51;97927.94;;;16.88;57.76
56894;BME280;43392;50.078;13.704;2023-09-30T09:35:19;97933.13;;;16.84;59.09
56894;BME280;43392;50.078;13.704;2023-09-30T09:37:57;97937.75;;;16.84;59.61
56894;BME280;43392;50.078;13.704;2023-09-30T09:40:26;97941.72;;;16.91;59.86
56894;BME280;43392;50.078;13.704;2023-09-30T09:42:54;97936.09;;;16.88;59.61
56894;BME280;43392;50.078;13.704;2023-09-30T09:45:22;97938.63;;;16.79;59.54
56894;BME280;43392;50.078;13.704;2023-09-30T09:47:49;97934.38;;;16.73;59.71
56894;BME280;43392;50.078;13.704;2023-09-30T09:50:18;97933.78;;;16.76;59.92
56894;BME280;43392;50.078;13.704;2023-09-30T09:52:47;97937.47;;;16.85;59.95
56894;BME280;43392;50.078;13.704;2023-09-30T09:55:17;97935.19;;;16.92;59.64
56894;BME280;43392;50.078;13.704;2023-09-30T09:57:45;97940.56;;;16.97;59.46
56894;BME280;43392;50.078;13.704;2023-09-30T10:00:14;97935.06;;;17.02;59.38
56894;BME280;43392;50.078;13.704;2023-09-30T10:02:41;97923.03;;;17.08;59.08
56894;BME280;43392;50.078;13.704;2023-09-30T10:05:08;97929.78;;;17.11;58.87
56894;BME280;43392;50.078;13.704;2023-09-30T10:07:39;97929.78;;;17.11;57.90
56894;BME280;43392;50.078;13.704;2023-09-30T10:10:10;97932.56;;;17.06;57.68
56894;BME280;43392;50.078;13.704;2023-09-30T10:12:40;97934.69;;;17.09;57.34
56894;BME280;43392;50.078;13.704;2023-09-30T10:15:37;97932.72;;;17.14;56.81
56894;BME280;43392;50.078;13.704;2023-09-30T10:18:07;97937.47;;;17.22;56.50
56894;BME280;43392;50.078;13.704;2023-09-30T10:20:36;97928.44;;;17.27;56.42
56894;BME280;43392;50.078;13.704;2023-09-30T10:23:23;97928.66;;;17.31;56.61
56894;BME280;43392;50.078;13.704;2023-09-30T10:25:52;97934.53;;;17.38;56.27
56894;BME280;43392;50.078;13.704;2023-09-30T10:28:34;97940.38;;;17.45;56.12
56894;BME280;43392;50.078;13.704;2023-09-30T10:31:11;97929.97;;;17.52;55.70
56894;BME280;43392;50.078;13.704;2023-09-30T10:36:43;97937.88;;;17.67;55.10
56894;BME280;43392;50.078;13.704;2023-09-30T10:39:12;97936.38;;;17.61;54.80
56894;BME280;43392;50.078;13.704;2023-09-30T10:41:49;97933.34;;;17.62;54.36
56894;BME280;43392;50.078;13.704;2023-09-30T10:44:35;97928.22;;;17.61;54.34
56894;BME280;43392;50.078;13.704;2023-09-30T10:47:35;97934.75;;;17.60;53.03
56894;BME280;43392;50.078;13.704;2023-09-30T10:50:02;97930.47;;;17.72;53.39
56894;BME280;43392;50.078;13.704;2023-09-30T10:52:30;97941.25;;;17.91;53.57
56894;BME280;43392;50.078;13.704;2023-09-30T10:55:02;97938.75;;;17.95;53.59
56894;BME280;43392;50.078;13.704;2023-09-30T10:57:28;97930.91;;;17.93;53.30
56894;BME280;43392;50.078;13.704;2023-09-30T11:00:09;97925.06;;;17.86;52.94
56894;BME280;43392;50.078;13.704;2023-09-30T11:02:48;97925.72;;;17.78;52.16
56894;BME280;43392;50.078;13.704;2023-09-30T11:05:14;97929.84;;;17.75;52.91
56894;BME280;43392;50.078;13.704;2023-09-30T11:07:41;97933.78;;;17.83;52.73
56894;BME280;43392;50.078;13.704;2023-09-30T11:10:09;97932.53;;;17.94;52.50
56894;BME280;43392;50.078;13.704;2023-09-30T11:12:37;97921.47;;;18.04;51.59
56894;BME280;43392;50.078;13.704;2023-09-30T11:15:06;97935.31;;;17.89;51.97
56894;BME280;43392;50.078;13.704;2023-09-30T11:17:36;97928.66;;;17.81;51.75
56894;BME280;43392;50.078;13.704;2023-09-30T11:20:03;97923.75;;;17.83;50.85
56894;BME280;43392;50.078;13.704;2023-09-30T11:22:31;97919.03;;;17.89;50.72
56894;BME280;43392;50.078;13.704;2023-09-30T11:25:00;97912.41;;;17.95;50.75
56894;BME280;43392;50.078;13.704;2023-09-30T11:27:28;97916.84;;;18.05;50.28
56894;BME280;43392;50.078;13.704;2023-09-30T11:29:56;97913.84;;;18.06;50.40
56894;BME280;43392;50.078;13.704;2023-09-30T11:32:24;97910.03;;;18.21;50.29
56894;BME280;43392;50.078;13.704;2023-09-30T11:34:53;97912.25;;;18.32;50.25
56894;BME280;43392;50.078;13.704;2023-09-30T11:37:20;97903.19;;;18.37;50.18
56894;BME280;43392;50.078;13.704;2023-09-30T11:39:47;97898.56;;;18.37;50.12
56894;BME280;43392;50.078;13.704;2023-09-30T11:42:17;97901.28;;;18.37;50.13
56894;BME280;43392;50.078;13.704;2023-09-30T11:44:45;97903.09;;;18.42;49.88
56894;BME280;43392;50.078;13.704;2023-09-30T11:47:14;97888.91;;;18.45;49.85
56894;BME280;43392;50.078;13.704;2023-09-30T11:49:42;97905.41;;;18.48;49.91
56894;BME280;43392;50.078;13.704;2023-09-30T11:52:12;97901.28;;;18.51;50.09
56894;BME280;43392;50.078;13.704;2023-09-30T11:54:41;97904.72;;;18.57;49.62
56894;BME280;43392;50.078;13.704;2023-09-30T11:57:10;97901.41;;;18.60;48.91
56894;BME280;43392;50.078;13.704;2023-09-30T11:59:37;97898.56;;;18.65;47.83
56894;BME280;43392;50.078;13.704;2023-09-30T12:02:06;97900.66;;;18.68;47.08
56894;BME280;43392;50.078;13.704;2023-09-30T12:04:34;97891.91;;;18.71;47.56
56894;BME280;43392;50.078;13.704;2023-09-30T12:07:01;97900.28;;;18.74;47.49
56894;BME280;43392;50.078;13.704;2023-09-30T12:09:29;97893.91;;;18.79;47.16
56894;BME280;43392;50.078;13.704;2023-09-30T12:11:57;97888.16;;;18.80;46.38
56894;BME280;43392;50.078;13.704;2023-09-30T12:14:24;97886.63;;;18.88;46.46
56894;BME280;43392;50.078;13.704;2023-09-30T12:16:51;97882.72;;;18.94;46.10
56894;BME280;43392;50.078;13.704;2023-09-30T12:19:18;97879.88;;;18.99;46.91
56894;BME280;43392;50.078;13.704;2023-09-30T12:21:45;97879.75;;;19.04;47.51
56894;BME280;43392;50.078;13.704;2023-09-30T12:24:13;97865.03;;;19.05;47.43
56894;BME280;43392;50.078;13.704;2023-09-30T12:26:43;97864.59;;;19.11;47.36
56894;BME280;43392;50.078;13.704;2023-09-30T12:29:13;97868.81;;;19.17;47.45
56894;BME280;43392;50.078;13.704;2023-09-30T12:31:41;97873.81;;;19.24;46.31
56894;BME280;43392;50.078;13.704;2023-09-30T12:34:08;97877.84;;;19.27;44.53
56894;BME280;43392;50.078;13.704;2023-09-30T12:36:35;97873.94;;;19.19;43.75
56894;BME280;43392;50.078;13.704;2023-09-30T12:39:02;97877.00;;;19.17;43.53
56894;BME280;43392;50.078;13.704;2023-09-30T12:41:36;97881.66;;;19.26;43.68
56894;BME280;43392;50.078;13.704;2023-09-30T12:44:04;97882.84;;;19.33;43.71
56894;BME280;43392;50.078;13.704;2023-09-30T12:46:30;97877.31;;;19.38;42.96
56894;BME280;43392;50.078;13.704;2023-09-30T12:49:00;97878.31;;;19.42;42.22
56894;BME280;43392;50.078;13.704;2023-09-30T12:51:27;97872.75;;;19.47;41.87
56894;BME280;43392;50.078;13.704;2023-09-30T12:53:53;97872.44;;;19.49;41.45
56894;BME280;43392;50.078;13.704;2023-09-30T12:56:20;97882.84;;;19.47;40.54
56894;BME280;43392;50.078;13.704;2023-09-30T12:58:47;97864.09;;;19.45;40.85